National Weather Service Raw Text Product

Displaying AFOS PIL: TAFALO Received: 2017-12-07 11:34 UTC


809 
FTUS43 KDMX 071134
TAFALO
TAF
KALO 071134Z 0712/0812 30009KT P6SM FEW110
     FM071800 28010G16KT P6SM FEW250
     FM080100 25007KT P6SM BKN045=